Time;durP1;ratioP1;P1;durP2;ratioP2;P2;SDS_P1;SDS_P2;PMS_P1;PMS_P2;Temp;Humidity;BMP_temperature;BMP_pressure;BME280_temperature;BME280_humidity;BME280_pressure;Samples;Min_cycle;Max_cycle;Signal;HPM_P1;HPM_P2
2022/04/22 00:00:12;;;;;;;121.15;110.75;;;13.90;63.60;;;;;;5052978;28;20056;-74
2022/04/22 00:02:39;;;;;;;124.72;113.88;;;13.90;63.60;;;;;;5034938;28;20133;-74
2022/04/22 00:05:06;;;;;;;121.45;111.05;;;13.90;63.60;;;;;;5052486;28;20053;-74
2022/04/22 00:07:33;;;;;;;121.00;110.18;;;13.90;63.80;;;;;;5034852;28;20510;-74
2022/04/22 00:10:00;;;;;;;118.22;107.90;;;13.80;63.80;;;;;;5035199;28;20076;-74
2022/04/22 00:12:27;;;;;;;120.95;110.45;;;13.80;64.00;;;;;;5035073;28;20081;-74
2022/04/22 00:14:55;;;;;;;121.82;111.10;;;13.70;64.00;;;;;;5035071;28;20053;-74
2022/04/22 00:17:22;;;;;;;122.10;111.30;;;13.70;64.10;;;;;;5053244;28;20152;-74
2022/04/22 00:19:50;;;;;;;120.95;110.53;;;13.70;64.30;;;;;;5035067;28;20049;-74
2022/04/22 00:22:17;;;;;;;122.22;111.28;;;13.70;64.40;;;;;;5034987;28;20141;-74
2022/04/22 00:24:43;;;;;;;122.07;111.28;;;13.60;64.70;;;;;;5035094;28;20049;-74
2022/04/22 00:27:10;;;;;;;122.43;111.35;;;13.50;65.10;;;;;;5051370;28;20092;-74
2022/04/22 00:29:37;;;;;;;120.18;109.53;;;13.50;65.30;;;;;;5052834;28;20053;-74
2022/04/22 00:32:07;;;;;;;120.00;109.50;;;13.50;65.40;;;;;;5035013;28;20418;-74
2022/04/22 00:34:34;;;;;;;120.43;109.75;;;13.50;65.60;;;;;;5034665;28;20136;-74
2022/04/22 00:37:01;;;;;;;122.78;111.90;;;13.50;65.50;;;;;;5034719;28;20050;-74
2022/04/22 00:39:28;;;;;;;123.00;112.05;;;13.50;65.60;;;;;;5033947;28;20044;-75
2022/04/22 00:41:55;;;;;;;120.72;110.10;;;13.40;65.80;;;;;;5034713;28;20125;-74
2022/04/22 00:44:22;;;;;;;120.38;109.72;;;13.40;66.10;;;;;;5034453;28;20103;-74
2022/04/22 00:46:50;;;;;;;120.25;109.45;;;13.30;66.20;;;;;;5035184;28;20057;-74
2022/04/22 00:49:19;;;;;;;118.57;107.95;;;13.30;66.40;;;;;;5034899;28;20053;-74
2022/04/22 00:51:46;;;;;;;121.88;110.88;;;13.30;66.30;;;;;;5034484;28;20046;-74
2022/04/22 00:54:14;;;;;;;122.32;111.57;;;13.30;66.40;;;;;;5034044;28;20137;-74
2022/04/22 00:56:41;;;;;;;123.53;112.53;;;13.30;66.40;;;;;;5034132;28;20064;-74
2022/04/22 00:59:08;;;;;;;121.25;110.18;;;13.30;66.70;;;;;;5034626;28;20053;-74
2022/04/22 01:01:35;;;;;;;122.25;111.30;;;13.20;66.70;;;;;;5034586;28;20524;-74
2022/04/22 01:09:50;;;;;;;124.22;112.78;;;13.10;67.00;;;;;;5052663;28;20049;-74
2022/04/22 01:12:18;;;;;;;122.90;111.95;;;13.10;67.10;;;;;;5052420;28;20050;-74
2022/04/22 01:14:45;;;;;;;121.82;110.65;;;13.10;67.10;;;;;;5052664;28;20045;-74
2022/04/22 01:17:12;;;;;;;123.13;111.68;;;13.10;67.10;;;;;;5051206;28;20061;-74
2022/04/22 01:19:41;;;;;;;122.50;111.13;;;13.10;67.10;;;;;;5038191;28;20547;-74
2022/04/22 01:22:10;;;;;;;121.88;110.88;;;13.10;67.10;;;;;;5037679;28;20124;-74
2022/04/22 01:24:37;;;;;;;121.10;110.20;;;13.10;67.20;;;;;;5055499;28;20144;-74
2022/04/22 01:27:05;;;;;;;126.25;114.80;;;13.10;67.20;;;;;;5037303;28;20053;-74
2022/04/22 01:29:33;;;;;;;123.50;112.07;;;13.10;67.20;;;;;;5037617;28;20052;-74
2022/04/22 01:32:01;;;;;;;122.63;111.25;;;13.00;67.30;;;;;;5037618;28;20503;-74
2022/04/22 01:34:28;;;;;;;121.97;110.78;;;13.00;67.40;;;;;;5054344;28;20052;-73
2022/04/22 01:36:55;;;;;;;122.78;111.40;;;12.90;67.50;;;;;;5037435;28;20054;-74
2022/04/22 01:39:23;;;;;;;121.38;110.30;;;12.90;67.50;;;;;;5037409;28;20046;-74
2022/04/22 01:41:50;;;;;;;121.85;110.32;;;12.90;67.60;;;;;;5055279;28;20165;-74
2022/04/22 01:44:17;;;;;;;121.43;110.32;;;12.90;67.50;;;;;;5055319;28;20049;-73
2022/04/22 01:46:44;;;;;;;123.10;111.78;;;12.90;67.70;;;;;;5055239;28;20136;-74
2022/04/22 01:49:11;;;;;;;122.60;111.20;;;12.90;67.80;;;;;;5037032;28;20058;-74
2022/04/22 01:51:39;;;;;;;121.78;110.47;;;12.90;67.80;;;;;;5055353;28;20124;-74
2022/04/22 01:54:06;;;;;;;122.05;110.72;;;12.80;67.90;;;;;;5055081;28;20143;-74
2022/04/22 01:56:34;;;;;;;120.50;109.50;;;12.80;67.90;;;;;;5037252;28;20140;-74
2022/04/22 01:59:01;;;;;;;122.47;111.28;;;12.80;67.90;;;;;;5054809;28;20484;-74
2022/04/22 02:01:29;;;;;;;120.60;109.50;;;12.70;67.90;;;;;;5037254;28;20054;-74
2022/04/22 02:03:56;;;;;;;120.45;109.45;;;12.70;68.10;;;;;;5054840;28;20784;-74
2022/04/22 02:06:23;;;;;;;123.10;111.97;;;12.70;68.70;;;;;;5054836;28;20108;-74
2022/04/22 02:08:50;;;;;;;123.13;111.63;;;12.60;68.40;;;;;;5053376;28;20172;-73
2022/04/22 02:11:17;;;;;;;121.07;110.03;;;12.60;68.70;;;;;;5054725;28;20073;-74
2022/04/22 02:13:45;;;;;;;122.78;111.10;;;12.50;68.70;;;;;;5036981;28;20057;-73
2022/04/22 02:16:12;;;;;;;121.07;109.68;;;12.50;69.40;;;;;;5037288;28;20053;-74
2022/04/22 02:18:41;;;;;;;121.65;110.15;;;12.50;69.00;;;;;;5054398;28;20104;-74
2022/04/22 02:21:09;;;;;;;119.85;108.95;;;12.50;69.20;;;;;;5020451;28;20046;-74
2022/04/22 02:23:37;;;;;;;122.78;111.57;;;12.50;69.20;;;;;;5036699;28;20045;-74
2022/04/22 02:26:05;;;;;;;122.05;110.93;;;12.50;69.40;;;;;;5054944;28;20057;-74
2022/04/22 02:28:34;;;;;;;121.47;110.10;;;12.50;69.60;;;;;;5054063;28;20053;-74
2022/04/22 02:31:04;;;;;;;121.53;110.22;;;12.40;69.30;;;;;;5036623;28;20072;-74
2022/04/22 02:33:32;;;;;;;122.50;110.90;;;12.40;69.50;;;;;;5036738;28;20053;-74
2022/04/22 02:36:00;;;;;;;120.13;109.10;;;12.50;69.50;;;;;;5020499;28;20055;-74
2022/04/22 02:38:28;;;;;;;121.13;109.93;;;12.50;69.50;;;;;;5036409;28;20054;-74
2022/04/22 02:46:25;;;;;;;123.30;111.57;;;12.30;69.70;;;;;;5036919;28;20057;-74
2022/04/22 02:48:52;;;;;;;121.18;109.70;;;12.20;69.90;;;;;;5019627;28;20530;-74
2022/04/22 02:51:19;;;;;;;121.30;109.97;;;12.20;70.10;;;;;;5036349;28;20049;-74
2022/04/22 02:53:46;;;;;;;121.53;110.10;;;12.10;70.30;;;;;;5036537;28;20124;-74
2022/04/22 02:56:13;;;;;;;120.40;109.32;;;12.10;70.50;;;;;;5036274;28;20574;-73
2022/04/22 02:58:42;;;;;;;119.53;108.00;;;12.00;70.60;;;;;;5054033;28;20065;-73
2022/04/22 03:01:08;;;;;;;119.85;108.50;;;12.00;70.80;;;;;;5036194;28;20041;-73
2022/04/22 03:03:37;;;;;;;118.72;107.45;;;11.90;70.90;;;;;;5036510;28;20057;-73
2022/04/22 03:06:04;;;;;;;118.97;107.82;;;11.90;70.90;;;;;;5036351;28;20045;-74
2022/04/22 03:08:32;;;;;;;119.32;107.95;;;11.90;71.10;;;;;;5035920;28;20121;-74
2022/04/22 03:10:59;;;;;;;118.22;107.13;;;11.90;71.00;;;;;;5036100;28;20054;-73
2022/04/22 03:13:26;;;;;;;119.38;108.15;;;11.90;70.90;;;;;;5036053;28;20049;-73
2022/04/22 03:15:54;;;;;;;119.57;108.15;;;11.90;71.00;;;;;;5053922;28;20049;-74
2022/04/22 03:18:21;;;;;;;118.55;107.38;;;11.80;71.00;;;;;;5053445;28;20077;-73
2022/04/22 03:20:49;;;;;;;119.22;107.93;;;11.80;71.20;;;;;;5035812;28;20046;-73
2022/04/22 03:23:16;;;;;;;117.30;106.32;;;11.70;71.20;;;;;;5051733;28;20506;-74
2022/04/22 03:25:43;;;;;;;119.32;108.13;;;11.70;71.80;;;;;;5036025;28;20415;-73
2022/04/22 03:28:10;;;;;;;118.93;107.72;;;11.60;71.40;;;;;;5035752;28;20042;-74
2022/04/22 03:30:37;;;;;;;118.60;107.40;;;11.60;71.40;;;;;;5035755;28;20157;-73
2022/04/22 03:33:05;;;;;;;117.90;106.88;;;11.60;71.60;;;;;;5036171;28;20053;-73
2022/04/22 03:35:32;;;;;;;117.80;106.70;;;11.60;71.60;;;;;;5035789;28;20398;-74
2022/04/22 03:38:00;;;;;;;117.28;106.25;;;11.60;71.60;;;;;;5035253;28;20147;-73
2022/04/22 03:40:27;;;;;;;118.57;107.55;;;11.50;71.40;;;;;;5034614;28;20516;-73
2022/04/22 03:42:54;;;;;;;117.10;106.18;;;11.50;71.40;;;;;;5035911;28;20164;-73
2022/04/22 03:45:22;;;;;;;117.30;106.28;;;11.50;71.30;;;;;;5035923;28;20053;-74
2022/04/22 03:47:49;;;;;;;116.88;106.07;;;11.50;71.20;;;;;;5035580;28;20053;-73
2022/04/22 03:50:17;;;;;;;115.70;104.85;;;11.40;71.10;;;;;;5035354;28;20398;-74
2022/04/22 03:52:43;;;;;;;115.20;104.45;;;11.40;71.10;;;;;;5035798;28;20041;-73
2022/04/22 03:55:12;;;;;;;118.20;107.00;;;11.40;71.10;;;;;;5053067;28;20064;-73
2022/04/22 04:00:23;;;;;;;115.85;105.00;;;11.30;70.90;;;;;;5035246;28;20569;-73
2022/04/22 04:02:50;;;;;;;115.53;104.85;;;11.20;70.90;;;;;;5052750;28;20057;-73
2022/04/22 04:05:17;;;;;;;116.47;105.45;;;11.20;71.00;;;;;;5035184;28;20530;-73
2022/04/22 04:07:45;;;;;;;115.70;105.00;;;11.10;71.10;;;;;;5034761;28;20046;-73
2022/04/22 04:16:00;;;;;;;115.38;104.60;;;11.10;71.30;;;;;;5034815;28;20060;-73
2022/04/22 04:18:29;;;;;;;115.55;104.35;;;11.00;71.20;;;;;;5052501;28;20057;-73
2022/04/22 04:23:41;;;;;;;115.78;104.68;;;11.00;71.20;;;;;;5033939;28;20483;-73
2022/04/22 04:26:10;;;;;;;116.15;104.95;;;11.00;71.10;;;;;;5051816;28;20046;-73
2022/04/22 04:28:38;;;;;;;115.07;104.28;;;11.00;71.30;;;;;;5034805;28;20511;-73
2022/04/22 04:31:06;;;;;;;115.57;104.47;;;11.00;71.20;;;;;;5052612;28;20100;-73
2022/04/22 04:33:33;;;;;;;115.30;104.40;;;11.00;71.20;;;;;;5034582;28;20567;-73
2022/04/22 04:36:01;;;;;;;116.15;105.32;;;11.00;71.10;;;;;;5034844;28;20055;-73
2022/04/22 04:38:28;;;;;;;115.32;104.63;;;11.00;71.10;;;;;;5052216;28;20060;-74
2022/04/22 04:40:55;;;;;;;115.15;104.57;;;10.90;71.00;;;;;;5051236;28;20136;-73
2022/04/22 04:43:24;;;;;;;116.35;105.50;;;10.90;70.90;;;;;;5034399;28;20054;-73
2022/04/22 04:45:51;;;;;;;114.82;104.53;;;10.90;70.90;;;;;;5034607;28;20050;-73
2022/04/22 04:48:18;;;;;;;114.57;104.18;;;10.90;70.80;;;;;;5050979;28;20525;-73
2022/04/22 04:50:46;;;;;;;116.22;105.63;;;10.90;70.70;;;;;;5034198;28;20053;-73
2022/04/22 04:53:14;;;;;;;114.18;103.38;;;10.90;70.90;;;;;;5037889;28;20108;-73
2022/04/22 04:55:41;;;;;;;114.97;104.68;;;10.90;70.90;;;;;;5055244;28;20057;-73
2022/04/22 04:58:09;;;;;;;114.65;104.05;;;10.80;70.90;;;;;;5055955;28;20141;-73
2022/04/22 05:00:38;;;;;;;113.57;102.82;;;10.80;71.00;;;;;;5056103;28;20056;-73
2022/04/22 05:03:05;;;;;;;119.13;108.38;;;10.80;71.00;;;;;;5037964;28;20138;-73
2022/04/22 05:05:32;;;;;;;117.95;107.13;;;10.80;71.00;;;;;;5037892;28;20123;-73
2022/04/22 05:08:01;;;;;;;116.00;105.43;;;10.80;71.00;;;;;;5055630;28;20585;-73
2022/04/22 05:10:30;;;;;;;124.82;105.47;;;10.80;71.10;;;;;;5037905;28;20069;-73
2022/04/22 05:12:57;;;;;;;114.25;103.55;;;10.80;71.00;;;;;;5037907;28;20059;-74
2022/04/22 05:15:25;;;;;;;116.03;105.38;;;10.80;71.10;;;;;;5055966;28;20062;-73
2022/04/22 05:17:55;;;;;;;114.47;104.03;;;10.70;71.10;;;;;;5037278;28;20467;-73
2022/04/22 05:20:23;;;;;;;133.57;105.22;;;10.70;71.20;;;;;;5055680;28;20056;-73
2022/04/22 05:22:50;;;;;;;114.15;103.65;;;10.70;71.20;;;;;;5037151;28;20512;-73
2022/04/22 05:25:17;;;;;;;111.88;101.57;;;10.70;71.50;;;;;;5053795;28;20139;-73
2022/04/22 05:27:44;;;;;;;110.97;100.72;;;10.70;71.60;;;;;;5037686;28;20053;-73
2022/04/22 05:32:58;;;;;;;112.00;101.40;;;10.70;71.80;;;;;;5021267;28;20053;-74
2022/04/22 05:35:27;;;;;;;113.00;102.10;;;10.70;71.80;;;;;;5037452;28;20056;-73
2022/04/22 05:37:56;;;;;;;114.38;103.68;;;10.70;71.70;;;;;;5037175;28;20046;-73
2022/04/22 05:40:24;;;;;;;129.05;106.00;;;10.70;71.80;;;;;;5037474;28;20057;-73
2022/04/22 05:42:53;;;;;;;113.15;102.43;;;10.70;71.80;;;;;;5037310;28;20052;-73
2022/04/22 05:45:21;;;;;;;115.80;103.53;;;10.70;72.00;;;;;;5037477;28;20117;-73
2022/04/22 05:47:48;;;;;;;112.97;102.43;;;10.70;72.10;;;;;;5037189;28;20124;-73
2022/04/22 05:50:18;;;;;;;113.55;102.85;;;10.70;72.00;;;;;;5037113;28;20103;-73
2022/04/22 05:52:46;;;;;;;112.80;102.25;;;10.80;72.00;;;;;;5053197;28;20053;-74
2022/04/22 05:55:16;;;;;;;111.93;101.63;;;10.80;71.90;;;;;;5035616;28;20045;-74
2022/04/22 05:57:43;;;;;;;113.90;103.40;;;10.80;71.90;;;;;;5035996;28;20546;-74
2022/04/22 06:00:13;;;;;;;116.90;103.95;;;10.80;71.80;;;;;;5052381;28;20041;-74
2022/04/22 06:02:41;;;;;;;115.18;104.28;;;10.70;71.80;;;;;;5036181;28;20046;-74
2022/04/22 06:05:09;;;;;;;113.15;102.53;;;10.70;71.80;;;;;;5036161;28;20057;-74
2022/04/22 06:07:37;;;;;;;113.60;102.93;;;10.70;71.90;;;;;;5033909;28;20532;-74
2022/04/22 06:12:50;;;;;;;116.68;105.88;;;10.70;72.10;;;;;;5034951;28;20049;-74
2022/04/22 06:15:17;;;;;;;114.10;103.45;;;10.60;72.00;;;;;;5035824;28;20542;-73
2022/04/22 06:17:44;;;;;;;118.35;105.13;;;10.60;72.20;;;;;;5035922;28;20050;-74
2022/04/22 06:20:11;;;;;;;115.38;104.85;;;10.70;72.40;;;;;;5035886;28;20076;-73
2022/04/22 06:22:40;;;;;;;114.63;102.80;;;10.70;72.40;;;;;;5035974;28;20645;-73
2022/04/22 06:25:08;;;;;;;113.03;102.53;;;10.80;72.30;;;;;;5036213;28;20045;-73
2022/04/22 06:27:38;;;;;;;129.95;105.03;;;10.80;72.30;;;;;;5018843;28;20072;-74
2022/04/22 06:30:07;;;;;;;112.50;101.70;;;10.80;72.30;;;;;;5035589;28;20052;-73
2022/04/22 06:32:34;;;;;;;113.07;102.43;;;10.80;72.10;;;;;;5050190;28;20056;-73
2022/04/22 06:35:02;;;;;;;113.95;103.00;;;10.80;72.30;;;;;;5035854;28;20053;-73
2022/04/22 06:37:34;;;;;;;115.45;103.28;;;10.80;72.20;;;;;;5035340;28;20049;-73
2022/04/22 06:45:48;;;;;;;;;;;10.80;72.10;;;;;;5019603;28;20459;-73
2022/04/22 06:48:20;;;;;;;113.88;103.28;;;10.80;72.00;;;;;;5053151;28;19925;-74
2022/04/22 06:50:48;;;;;;;114.07;103.00;;;10.80;72.10;;;;;;5052078;28;20061;-73
2022/04/22 06:53:16;;;;;;;115.95;105.18;;;10.90;72.20;;;;;;5031173;28;20053;-73
2022/04/22 06:55:46;;;;;;;113.88;103.45;;;10.90;72.30;;;;;;5035182;28;20057;-74
2022/04/22 06:58:15;;;;;;;140.48;105.32;;;10.90;72.10;;;;;;5034893;28;20087;-74
2022/04/22 07:00:43;;;;;;;112.97;102.43;;;11.00;72.10;;;;;;5034450;28;20483;-73
2022/04/22 07:03:11;;;;;;;117.07;106.32;;;11.00;72.00;;;;;;5033169;28;20053;-73
2022/04/22 07:05:40;;;;;;;112.80;102.35;;;11.00;72.10;;;;;;5052858;28;20081;-74
2022/04/22 07:08:13;;;;;;;140.27;105.93;;;11.10;72.00;;;;;;5033883;28;20053;-74
2022/04/22 07:10:41;;;;;;;111.90;101.60;;;11.10;72.10;;;;;;5035312;28;20046;-74
2022/04/22 07:13:11;;;;;;;114.35;103.70;;;11.10;71.90;;;;;;5034697;28;20545;-73
2022/04/22 07:15:39;;;;;;;113.72;102.93;;;11.20;72.00;;;;;;5052149;28;20603;-74
2022/04/22 07:18:07;;;;;;;113.70;103.10;;;11.20;72.10;;;;;;5049542;28;20081;-73
2022/04/22 07:20:35;;;;;;;112.88;102.13;;;11.20;71.80;;;;;;5033556;28;20103;-73
2022/04/22 07:23:02;;;;;;;144.40;102.55;;;11.20;71.80;;;;;;5034451;28;20140;-73
2022/04/22 07:25:29;;;;;;;112.10;100.88;;;11.30;71.70;;;;;;5034780;28;20140;-73
2022/04/22 07:27:58;;;;;;;113.40;102.80;;;11.30;71.70;;;;;;5034266;28;20506;-74
2022/04/22 07:30:27;;;;;;;114.43;103.72;;;11.30;71.80;;;;;;5032616;28;20104;-74
2022/04/22 07:32:55;;;;;;;113.15;102.30;;;11.40;71.70;;;;;;5034593;28;20073;-74
2022/04/22 07:35:23;;;;;;;113.20;102.57;;;11.40;71.60;;;;;;5034574;28;20046;-74
2022/04/22 07:37:51;;;;;;;111.88;101.60;;;11.50;71.40;;;;;;5051525;28;20056;-74
2022/04/22 07:40:20;;;;;;;113.05;102.55;;;11.50;71.30;;;;;;5031870;28;20526;-75
2022/04/22 07:48:22;;;;;;;111.63;101.13;;;11.70;70.90;;;;;;5034615;28;20050;-74
2022/04/22 07:50:51;;;;;;;111.45;100.97;;;11.70;70.70;;;;;;5052778;28;20046;-74
2022/04/22 07:53:19;;;;;;;143.48;104.32;;;11.70;70.50;;;;;;5032721;28;20434;-74
2022/04/22 07:55:48;;;;;;;113.15;102.03;;;11.80;70.40;;;;;;5051591;28;20060;-74
2022/04/22 07:58:15;;;;;;;112.13;101.65;;;11.90;70.20;;;;;;5034180;28;20056;-75
2022/04/22 08:00:44;;;;;;;110.88;100.43;;;11.90;70.30;;;;;;5052780;28;20164;-74
2022/04/22 08:03:12;;;;;;;112.22;101.45;;;11.90;70.20;;;;;;5034236;28;20056;-74
2022/04/22 08:05:40;;;;;;;115.28;103.20;;;12.00;70.10;;;;;;5052576;28;20503;-74
2022/04/22 08:08:09;;;;;;;112.28;101.50;;;12.00;69.80;;;;;;5034329;28;20045;-74
2022/04/22 08:10:36;;;;;;;111.18;100.75;;;12.10;69.30;;;;;;5017982;28;20050;-74
2022/04/22 08:13:05;;;;;;;114.10;102.80;;;12.10;69.30;;;;;;5034631;28;20053;-73
2022/04/22 08:15:32;;;;;;;111.95;101.38;;;12.10;69.30;;;;;;5060112;28;20089;-74
2022/04/22 08:18:00;;;;;;;110.85;100.15;;;12.20;69.50;;;;;;5055822;28;20057;-74
2022/04/22 08:20:29;;;;;;;108.80;98.90;;;12.20;69.00;;;;;;5052147;28;20061;-74
2022/04/22 08:22:56;;;;;;;109.35;99.25;;;12.30;69.10;;;;;;5017134;28;20046;-74
2022/04/22 08:25:23;;;;;;;113.70;101.55;;;12.30;69.40;;;;;;5033856;28;20054;-75
2022/04/22 08:27:51;;;;;;;111.93;101.53;;;12.40;69.10;;;;;;5051448;28;20103;-75
2022/04/22 08:30:18;;;;;;;111.25;100.85;;;12.50;68.50;;;;;;5033975;28;20499;-74
2022/04/22 08:32:45;;;;;;;114.53;101.75;;;12.60;68.40;;;;;;5034135;28;20049;-74
2022/04/22 08:35:14;;;;;;;118.65;103.85;;;12.60;68.40;;;;;;5034126;28;20042;-74
2022/04/22 08:37:42;;;;;;;112.13;101.72;;;12.60;68.30;;;;;;5034644;28;20099;-75
2022/04/22 08:40:10;;;;;;;112.68;101.93;;;12.70;68.40;;;;;;5052894;28;20046;-74
2022/04/22 08:42:38;;;;;;;114.55;104.25;;;12.70;67.40;;;;;;5052439;28;20060;-74
2022/04/22 08:45:07;;;;;;;112.00;101.88;;;12.80;67.30;;;;;;5034677;28;20141;-74
2022/04/22 08:50:20;;;;;;;111.22;101.00;;;12.90;67.30;;;;;;5034655;28;20048;-74
2022/04/22 08:52:56;;;;;;;112.32;101.60;;;13.00;67.60;;;;;;5051634;28;20053;-73
2022/04/22 08:55:25;;;;;;;111.90;101.68;;;13.00;66.80;;;;;;5032297;28;20104;-74
2022/04/22 08:57:54;;;;;;;113.68;103.28;;;13.10;66.70;;;;;;5033398;28;20136;-72
2022/04/22 09:00:23;;;;;;;113.93;103.40;;;13.10;66.50;;;;;;5029216;28;20137;-72
2022/04/22 09:02:50;;;;;;;112.97;102.60;;;13.20;66.40;;;;;;5032171;28;20057;-72
2022/04/22 09:05:17;;;;;;;113.13;102.82;;;13.30;66.60;;;;;;5031424;28;20041;-74
2022/04/22 09:07:45;;;;;;;111.80;101.68;;;13.40;66.10;;;;;;5033496;28;20143;-75
2022/04/22 09:10:12;;;;;;;110.93;100.88;;;13.50;65.60;;;;;;5033378;28;20049;-74
2022/04/22 09:12:43;;;;;;;115.90;103.55;;;13.50;65.50;;;;;;5032612;28;20141;-74
2022/04/22 09:15:11;;;;;;;113.15;103.05;;;13.60;65.50;;;;;;5033032;28;20053;-74
2022/04/22 09:17:38;;;;;;;282.25;117.30;;;13.70;65.20;;;;;;5049529;28;20491;-73
2022/04/22 09:20:06;;;;;;;115.00;104.70;;;13.80;65.40;;;;;;5032282;28;20122;-74
2022/04/22 09:22:35;;;;;;;114.30;104.00;;;13.80;65.50;;;;;;5048296;28;20507;-74
2022/04/22 09:25:05;;;;;;;116.20;105.68;;;13.90;65.30;;;;;;5029342;28;20056;-74
2022/04/22 09:27:33;;;;;;;115.15;104.50;;;14.00;65.20;;;;;;5047859;28;20064;-75
2022/04/22 09:30:04;;;;;;;115.68;104.72;;;14.00;64.80;;;;;;5031277;28;20112;-75
2022/04/22 09:32:33;;;;;;;112.80;102.60;;;14.10;64.30;;;;;;5048878;28;20077;-73
2022/04/22 09:35:10;;;;;;;112.20;101.97;;;14.20;63.80;;;;;;5050615;28;20463;-72
2022/04/22 09:43:23;;;;;;;116.28;105.82;;;14.40;62.80;;;;;;5055311;28;20049;-75
2022/04/22 09:45:52;;;;;;;116.43;105.80;;;14.50;62.00;;;;;;5037430;28;21012;-74
2022/04/22 09:48:20;;;;;;;173.75;112.28;;;14.50;61.50;;;;;;5036610;28;20060;-73
2022/04/22 09:50:52;;;;;;;117.55;106.85;;;14.60;62.10;;;;;;5036833;28;20046;-75
2022/04/22 09:53:32;;;;;;;116.43;104.75;;;14.60;62.40;;;;;;5036924;28;20060;-75
2022/04/22 09:56:07;;;;;;;116.60;105.15;;;14.70;62.70;;;;;;5037625;28;20052;-73
2022/04/22 09:58:34;;;;;;;114.80;104.32;;;14.80;61.90;;;;;;5055059;28;20059;-75
2022/04/22 10:01:03;;;;;;;115.18;105.07;;;14.90;61.60;;;;;;5053444;28;20107;-75
2022/04/22 10:03:32;;;;;;;114.63;104.53;;;15.00;61.40;;;;;;5054303;28;20045;-73
2022/04/22 10:06:01;;;;;;;113.82;103.55;;;15.00;61.50;;;;;;5036595;28;20104;-72
2022/04/22 10:08:30;;;;;;;114.85;104.60;;;15.10;61.90;;;;;;5035858;28;20054;-76
2022/04/22 10:11:01;;;;;;;115.82;104.65;;;15.10;61.90;;;;;;5036683;28;20057;-74
2022/04/22 10:13:34;;;;;;;116.85;106.53;;;15.20;61.30;;;;;;5034542;28;20045;-73
2022/04/22 10:16:02;;;;;;;116.55;106.20;;;15.30;60.70;;;;;;5054036;28;20538;-74
2022/04/22 10:18:31;;;;;;;116.20;106.20;;;15.30;60.50;;;;;;5051416;28;20052;-74
2022/04/22 10:20:58;;;;;;;117.38;106.35;;;15.40;60.30;;;;;;5052729;28;20139;-73
2022/04/22 10:23:26;;;;;;;116.70;106.60;;;15.40;60.50;;;;;;5052451;28;20060;-74
2022/04/22 10:25:53;;;;;;;118.45;107.57;;;15.60;60.10;;;;;;5036147;28;20674;-75
2022/04/22 10:28:23;;;;;;;120.15;109.20;;;15.60;60.00;;;;;;5053227;28;20045;-74
2022/04/22 10:30:52;;;;;;;118.30;108.07;;;15.70;59.80;;;;;;5033847;28;20136;-73
2022/04/22 10:33:24;;;;;;;117.90;107.72;;;15.70;59.10;;;;;;5035458;28;20125;-73
2022/04/22 10:35:58;;;;;;;119.57;109.18;;;15.80;59.20;;;;;;5050927;28;20060;-73
2022/04/22 10:38:30;;;;;;;121.20;110.88;;;15.90;59.40;;;;;;5035745;28;20072;-77
2022/04/22 10:41:00;;;;;;;122.88;112.43;;;15.90;58.90;;;;;;5035278;28;20041;-73
2022/04/22 10:43:29;;;;;;;120.07;109.22;;;16.00;58.90;;;;;;5035541;28;20144;-73
2022/04/22 10:48:42;;;;;;;119.50;108.85;;;16.10;58.60;;;;;;5034163;28;20045;-73
2022/04/22 10:51:13;;;;;;;119.15;108.80;;;16.10;58.50;;;;;;5051425;28;20049;-73
2022/04/22 10:53:49;;;;;;;123.15;112.60;;;16.20;58.10;;;;;;5052799;28;20064;-73
2022/04/22 10:56:35;;;;;;;120.43;110.15;;;16.30;58.30;;;;;;5033863;28;20049;-73
2022/04/22 10:59:32;;;;;;;121.82;110.68;;;16.40;58.00;;;;;;5018059;28;20045;-74
2022/04/22 11:02:00;;;;;;;122.78;111.28;;;16.40;57.80;;;;;;5051659;28;20041;-75
2022/04/22 11:04:29;;;;;;;119.43;109.43;;;16.40;56.90;;;;;;5035208;28;20061;-75
2022/04/22 11:06:57;;;;;;;120.63;110.45;;;16.50;57.30;;;;;;5053274;28;20132;-75
2022/04/22 11:09:26;;;;;;;124.53;114.03;;;16.60;57.70;;;;;;5034994;28;20495;-75
2022/04/22 11:11:53;;;;;;;123.10;112.70;;;16.60;57.80;;;;;;5030785;28;20062;-75
2022/04/22 11:14:21;;;;;;;126.13;115.53;;;16.70;58.10;;;;;;5048546;28;20089;-75
2022/04/22 11:16:50;;;;;;;121.63;111.25;;;16.80;57.50;;;;;;5032626;28;20059;-75
2022/04/22 11:19:36;;;;;;;122.45;111.88;;;16.90;57.30;;;;;;5051521;28;20132;-75
2022/04/22 11:22:05;;;;;;;122.40;112.07;;;17.00;57.40;;;;;;5017526;28;20450;-77
2022/04/22 11:24:33;;;;;;;120.75;110.63;;;17.00;57.40;;;;;;5033454;28;20049;-77
2022/04/22 11:27:11;;;;;;;124.95;114.45;;;17.10;57.40;;;;;;5051094;28;20467;-77
2022/04/22 11:29:39;;;;;;;123.40;112.97;;;17.20;57.30;;;;;;5034001;28;20581;-77
2022/04/22 11:32:15;;;;;;;181.00;116.35;;;17.30;57.60;;;;;;5050540;28;20557;-77
2022/04/22 11:35:15;;;;;;;120.57;110.20;;;17.40;57.10;;;;;;5034023;28;20148;-76
2022/04/22 11:37:42;;;;;;;121.53;111.15;;;17.40;56.30;;;;;;5030977;28;20135;-75
2022/04/22 11:40:10;;;;;;;124.43;114.43;;;17.50;56.20;;;;;;5034493;28;20052;-76
2022/04/22 11:42:44;;;;;;;188.65;118.55;;;17.50;56.10;;;;;;5032946;28;20059;-74
2022/04/22 11:45:14;;;;;;;125.25;114.85;;;17.60;56.20;;;;;;5031636;28;20050;-75
2022/04/22 11:47:42;;;;;;;124.75;113.85;;;17.70;56.60;;;;;;5033600;28;20136;-74
2022/04/22 11:50:10;;;;;;;125.53;113.20;;;17.70;55.90;;;;;;5049938;28;20049;-74
2022/04/22 11:52:38;;;;;;;125.60;114.50;;;17.80;55.60;;;;;;5049119;28;20828;-74
2022/04/22 11:55:07;;;;;;;127.38;116.25;;;17.80;55.40;;;;;;5048428;28;20049;-73
2022/04/22 11:57:36;;;;;;;125.82;114.90;;;17.80;55.00;;;;;;5032443;28;20504;-74
2022/04/22 12:05:42;;;;;;;126.60;116.57;;;17.90;54.60;;;;;;5034371;28;20711;-74
2022/04/22 12:08:13;;;;;;;125.50;115.47;;;18.00;54.80;;;;;;5050431;28;20049;-74
2022/04/22 12:10:44;;;;;;;124.10;113.95;;;18.10;54.60;;;;;;5034449;28;20053;-75
2022/04/22 12:13:13;;;;;;;124.00;113.25;;;18.10;54.10;;;;;;5051701;28;20054;-74
2022/04/22 12:15:43;;;;;;;124.15;113.70;;;18.20;54.50;;;;;;5033942;28;20496;-74
2022/04/22 12:21:06;;;;;;;250.57;121.88;;;18.20;54.60;;;;;;5166963;27;20148;-74
2022/04/22 12:23:34;;;;;;;132.88;121.57;;;18.40;54.00;;;;;;5147313;27;20059;-74
2022/04/22 12:26:01;;;;;;;233.35;127.93;;;18.40;54.00;;;;;;5166387;27;20134;-74
2022/04/22 12:28:28;;;;;;;135.88;118.55;;;18.50;53.80;;;;;;5131972;27;20054;-73
2022/04/22 12:30:56;;;;;;;155.13;119.55;;;18.50;53.40;;;;;;5149575;27;20055;-73
2022/04/22 12:33:24;;;;;;;127.32;115.50;;;18.60;53.50;;;;;;5184732;27;20062;-73
2022/04/22 12:36:02;;;;;;;127.32;115.25;;;18.70;53.30;;;;;;5150310;27;20055;-72
2022/04/22 12:38:32;;;;;;;132.23;121.47;;;18.70;53.40;;;;;;5149944;27;20134;-73
2022/04/22 12:40:59;;;;;;;132.32;121.68;;;18.80;53.00;;;;;;5149862;27;20471;-73
2022/04/22 12:43:31;;;;;;;127.32;117.05;;;18.80;53.50;;;;;;5151270;27;20047;-72
2022/04/22 12:52:12;;;;;;;129.02;117.90;;;19.00;53.20;;;;;;5149972;27;20105;-72
2022/04/22 12:54:42;;;;;;;127.38;117.28;;;19.00;52.80;;;;;;5148668;27;20048;-72
2022/04/22 12:57:19;;;;;;;134.05;123.53;;;19.00;52.30;;;;;;5148856;27;20460;-72
2022/04/22 12:59:49;;;;;;;135.63;123.85;;;19.00;53.00;;;;;;5163502;27;20093;-71
2022/04/22 13:02:18;;;;;;;128.65;118.28;;;19.10;52.80;;;;;;5148862;27;20526;-72
2022/04/22 13:04:52;;;;;;;136.20;125.57;;;19.10;52.30;;;;;;5148085;27;20104;-73
2022/04/22 13:07:19;;;;;;;132.15;121.57;;;19.00;53.00;;;;;;5149369;27;20058;-74
2022/04/22 13:09:48;;;;;;;128.52;118.13;;;19.00;52.80;;;;;;5149961;27;20050;-74
2022/04/22 13:12:15;;;;;;;129.13;118.78;;;19.10;53.00;;;;;;5149485;27;20131;-74
2022/04/22 13:14:42;;;;;;;130.02;119.13;;;19.10;53.50;;;;;;5148525;27;20135;-74
2022/04/22 13:17:22;;;;;;;132.48;122.25;;;19.20;53.40;;;;;;5148430;27;20055;-73
2022/04/22 13:19:49;;;;;;;126.88;117.00;;;19.20;52.80;;;;;;5147532;27;20047;-75